createdAt,value
2019-01-08T00:02:25.270Z,9.38
2019-01-08T00:04:57.299Z,10.50
2019-01-08T00:07:27.952Z,8.80
2019-01-08T00:09:58.420Z,9.75
2019-01-08T00:12:29.133Z,9.75
2019-01-08T00:14:59.829Z,10.60
2019-01-08T00:17:30.447Z,9.95
2019-01-08T00:20:01.122Z,9.00
2019-01-08T00:22:31.654Z,7.45
2019-01-08T00:25:02.125Z,9.75
2019-01-08T00:27:33.660Z,10.23
2019-01-08T00:30:04.060Z,8.40
2019-01-08T00:32:34.641Z,10.63
2019-01-08T00:35:05.655Z,9.70
2019-01-08T00:37:36.188Z,10.78
2019-01-08T00:40:06.953Z,9.20
2019-01-08T00:42:37.510Z,9.25
2019-01-08T00:45:08.034Z,9.70
2019-01-08T00:47:38.914Z,9.95
2019-01-08T00:50:09.691Z,9.28
2019-01-08T00:52:40.178Z,9.10
2019-01-08T00:55:10.750Z,7.80
2019-01-08T00:57:41.229Z,9.18
2019-01-08T01:00:12.207Z,7.97
2019-01-08T01:02:43.066Z,7.65
2019-01-08T01:05:13.575Z,7.62
2019-01-08T01:07:44.164Z,8.68
2019-01-08T01:10:14.999Z,9.20
2019-01-08T01:12:45.570Z,7.45
2019-01-08T01:15:17.228Z,8.50
2019-01-08T01:17:47.781Z,8.75
2019-01-08T01:20:18.391Z,7.95
2019-01-08T01:22:49.082Z,7.70
2019-01-08T01:25:19.695Z,8.28
2019-01-08T01:27:51.351Z,7.80
2019-01-08T01:30:21.921Z,7.20
2019-01-08T01:32:52.596Z,7.45
2019-01-08T01:35:23.084Z,7.25
2019-01-08T01:37:54.032Z,7.15
2019-01-08T01:40:24.623Z,7.15
2019-01-08T01:42:55.164Z,8.00
2019-01-08T01:45:27.132Z,6.22
2019-01-08T01:47:57.835Z,7.25
2019-01-08T01:50:28.310Z,8.40
2019-01-08T01:53:01.476Z,7.03
2019-01-08T01:55:32.072Z,7.45
2019-01-08T01:58:02.570Z,6.80
2019-01-08T02:00:33.063Z,7.05
2019-01-08T02:03:05.045Z,8.53
2019-01-08T02:05:35.664Z,8.80
2019-01-08T02:08:06.225Z,9.08
2019-01-08T02:10:36.724Z,8.05
2019-01-08T02:13:07.177Z,7.87
2019-01-08T02:15:38.123Z,7.10
2019-01-08T02:18:08.685Z,6.60
2019-01-08T02:20:39.069Z,7.45
2019-01-08T02:23:09.622Z,7.83
2019-01-08T02:25:40.207Z,8.43
2019-01-08T02:28:10.769Z,8.60
2019-01-08T02:30:41.552Z,7.33
2019-01-08T02:33:13.170Z,8.73
2019-01-08T02:35:44.080Z,8.38
2019-01-08T02:38:15.606Z,7.97
2019-01-08T02:40:46.320Z,7.78
2019-01-08T02:43:17.324Z,8.23
2019-01-08T02:45:47.804Z,7.00
2019-01-08T02:48:18.458Z,7.20
2019-01-08T02:50:49.004Z,6.95
2019-01-08T02:53:19.636Z,7.50
2019-01-08T02:55:51.476Z,7.53
2019-01-08T02:58:22.863Z,7.30
2019-01-08T03:00:53.561Z,8.55
2019-01-08T03:03:24.112Z,7.10
2019-01-08T03:05:54.905Z,7.45
2019-01-08T03:08:25.904Z,8.28
2019-01-08T03:10:56.614Z,6.70
2019-01-08T03:13:27.046Z,7.33
2019-01-08T03:15:57.604Z,7.30
2019-01-08T03:18:28.074Z,7.30
2019-01-08T03:20:58.658Z,7.28
2019-01-08T03:23:29.277Z,7.72
2019-01-08T03:25:59.689Z,7.85
2019-01-08T03:28:30.267Z,7.35
2019-01-08T03:31:01.079Z,7.92
2019-01-08T03:33:31.511Z,8.10
2019-01-08T03:36:02.055Z,8.18
2019-01-08T03:38:32.722Z,8.83
2019-01-08T03:41:03.310Z,7.60
2019-01-08T03:43:33.792Z,8.65
2019-01-08T03:46:04.530Z,8.58
2019-01-08T03:48:35.022Z,8.18
2019-01-08T03:51:05.758Z,8.33
2019-01-08T03:53:36.234Z,8.20
2019-01-08T03:56:06.667Z,7.08
2019-01-08T03:58:37.113Z,7.75
2019-01-08T04:01:07.849Z,8.58
2019-01-08T04:03:38.403Z,7.85
2019-01-08T04:06:08.918Z,8.08
2019-01-08T04:08:39.530Z,7.35
2019-01-08T04:11:10.378Z,7.85
2019-01-08T04:13:41.157Z,8.15
2019-01-08T04:16:11.601Z,9.23
2019-01-08T04:18:44.536Z,8.08
2019-01-08T04:21:15.203Z,7.97
2019-01-08T04:23:45.713Z,8.20
2019-01-08T04:26:16.243Z,6.47
2019-01-08T04:28:46.766Z,7.95
2019-01-08T04:31:17.374Z,6.67
2019-01-08T04:33:47.929Z,7.92
2019-01-08T04:36:18.592Z,6.67
2019-01-08T04:38:49.313Z,7.37
2019-01-08T04:41:19.856Z,7.40
2019-01-08T04:43:50.455Z,7.60
2019-01-08T04:46:20.986Z,6.35
2019-01-08T04:48:51.803Z,7.28
2019-01-08T04:51:24.209Z,7.40
2019-01-08T04:53:54.652Z,7.95
2019-01-08T04:56:25.249Z,7.37
2019-01-08T04:58:55.777Z,8.28
2019-01-08T05:01:26.807Z,7.72
2019-01-08T05:03:57.238Z,7.83
2019-01-08T05:06:27.787Z,6.22
2019-01-08T05:08:58.575Z,7.53
2019-01-08T05:11:29.368Z,6.60
2019-01-08T05:14:00.299Z,8.13
2019-01-08T05:16:31.076Z,9.28
2019-01-08T05:19:01.631Z,10.03
2019-01-08T05:21:32.150Z,8.00
2019-01-08T05:24:02.753Z,8.35
2019-01-08T05:26:33.560Z,8.80
2019-01-08T05:29:04.263Z,9.23
2019-01-08T05:31:36.057Z,8.10
2019-01-08T05:34:06.816Z,7.90
2019-01-08T05:36:37.497Z,8.00
2019-01-08T05:39:08.369Z,7.47
2019-01-08T05:41:38.861Z,8.28
2019-01-08T05:44:10.065Z,7.87
2019-01-08T05:46:40.994Z,8.05
2019-01-08T05:49:11.802Z,11.70
2019-01-08T05:51:42.726Z,8.73
2019-01-08T05:54:13.455Z,7.97
2019-01-08T05:56:46.859Z,8.65
2019-01-08T05:59:21.235Z,8.20
2019-01-08T06:01:52.048Z,8.48
2019-01-08T06:04:22.562Z,8.25
2019-01-08T06:06:53.251Z,9.28
2019-01-08T06:09:23.951Z,11.63
2019-01-08T06:11:54.408Z,8.85
2019-01-08T06:14:24.823Z,9.95
2019-01-08T06:16:55.403Z,9.08
2019-01-08T06:19:26.035Z,9.40
2019-01-08T06:21:57.023Z,9.25
2019-01-08T06:24:27.517Z,9.75
2019-01-08T06:26:58.052Z,9.08
2019-01-08T06:29:28.706Z,11.55
2019-01-08T06:31:59.473Z,9.93
2019-01-08T06:34:29.940Z,10.08
2019-01-08T06:37:02.000Z,9.55
2019-01-08T06:39:32.732Z,11.93
2019-01-08T06:42:04.438Z,8.80
2019-01-08T06:44:35.140Z,10.10
2019-01-08T06:47:06.369Z,10.00
2019-01-08T06:49:37.265Z,9.95
2019-01-08T06:52:07.830Z,10.50
2019-01-08T06:54:38.685Z,10.15
2019-01-08T06:57:10.683Z,10.82
2019-01-08T06:59:41.345Z,11.25
2019-01-08T07:02:12.048Z,10.88
2019-01-08T07:04:42.857Z,11.57
2019-01-08T07:07:13.349Z,10.78
2019-01-08T07:09:44.118Z,10.45
2019-01-08T07:12:16.065Z,10.58
2019-01-08T07:14:47.334Z,11.28
2019-01-08T07:17:20.443Z,11.55
2019-01-08T07:19:51.620Z,10.98
2019-01-08T07:22:22.635Z,10.82
2019-01-08T07:24:53.363Z,10.30
2019-01-08T07:27:24.453Z,10.72
2019-01-08T07:29:54.962Z,9.63
2019-01-08T07:32:26.742Z,8.83
2019-01-08T07:34:57.326Z,9.80
2019-01-08T07:37:27.615Z,9.25
2019-01-08T07:39:58.013Z,11.28
2019-01-08T07:42:28.709Z,10.63
2019-01-08T07:44:59.262Z,10.68
2019-01-08T07:47:29.598Z,9.20
2019-01-08T07:50:00.209Z,10.28
2019-01-08T07:52:30.741Z,9.93
2019-01-08T07:55:01.504Z,9.53
2019-01-08T07:57:32.156Z,8.70
2019-01-08T08:00:02.837Z,9.88
2019-01-08T08:02:33.571Z,10.53
2019-01-08T08:05:04.695Z,10.25
2019-01-08T08:07:35.193Z,9.55
2019-01-08T08:10:05.891Z,10.45
2019-01-08T08:12:36.491Z,9.33
2019-01-08T08:15:07.879Z,9.60
2019-01-08T08:17:40.974Z,11.15
2019-01-08T08:20:11.537Z,9.03
2019-01-08T08:22:42.165Z,9.63
2019-01-08T08:25:14.997Z,9.65
2019-01-08T08:27:45.386Z,12.40
2019-01-08T08:30:16.197Z,15.08
2019-01-08T08:32:46.934Z,12.73
2019-01-08T08:35:17.614Z,13.10
2019-01-08T08:37:48.699Z,14.25
2019-01-08T08:40:19.319Z,14.25
2019-01-08T08:42:49.817Z,13.65
2019-01-08T08:45:20.418Z,11.28
2019-01-08T08:47:50.955Z,13.40
2019-01-08T08:50:21.588Z,12.50
2019-01-08T08:52:52.247Z,12.15
2019-01-08T08:55:23.012Z,12.43
2019-01-08T08:57:53.766Z,11.80
2019-01-08T09:00:25.437Z,13.35
2019-01-08T09:02:56.290Z,12.63
2019-01-08T09:05:26.981Z,13.00
2019-01-08T09:07:57.674Z,13.20
2019-01-08T09:10:28.245Z,11.40
2019-01-08T09:12:59.831Z,11.08
2019-01-08T09:15:30.446Z,10.93
2019-01-08T09:18:01.553Z,11.30
2019-01-08T09:20:32.217Z,11.73
2019-01-08T09:23:02.693Z,13.00
2019-01-08T09:25:34.556Z,12.98
2019-01-08T09:28:06.092Z,12.80
2019-01-08T09:30:38.413Z,13.43
2019-01-08T09:33:09.213Z,13.53
2019-01-08T09:35:41.731Z,13.55
2019-01-08T09:38:12.369Z,13.70
2019-01-08T09:40:43.979Z,14.30
2019-01-08T09:43:14.704Z,13.40
2019-01-08T09:45:45.435Z,13.08
2019-01-08T09:48:15.861Z,13.48
2019-01-08T09:50:46.445Z,13.40
2019-01-08T09:53:17.500Z,12.60
2019-01-08T09:55:49.385Z,13.25
2019-01-08T09:58:19.854Z,13.13
2019-01-08T10:00:50.854Z,13.30
2019-01-08T10:03:22.017Z,13.03
2019-01-08T10:05:52.379Z,13.20
2019-01-08T10:08:23.234Z,14.05
2019-01-08T10:10:53.938Z,14.07
2019-01-08T10:13:24.533Z,13.95
2019-01-08T10:15:57.152Z,13.25
2019-01-08T10:18:27.650Z,13.55
2019-01-08T10:20:58.100Z,14.07
2019-01-08T10:23:29.522Z,14.83
2019-01-08T10:26:00.105Z,13.18
2019-01-08T10:28:32.478Z,14.28
2019-01-08T10:31:03.642Z,13.13
2019-01-08T10:33:34.147Z,14.87
2019-01-08T10:36:04.851Z,12.68
2019-01-08T10:38:35.473Z,14.63
2019-01-08T10:41:06.004Z,13.62
2019-01-08T10:43:36.505Z,13.85
2019-01-08T10:46:06.979Z,13.03
2019-01-08T10:48:38.800Z,13.72
2019-01-08T10:51:09.260Z,13.55
2019-01-08T10:53:40.489Z,14.73
2019-01-08T10:56:11.037Z,13.80
2019-01-08T10:58:41.662Z,14.30
2019-01-08T11:01:12.879Z,15.23
2019-01-08T11:03:43.747Z,15.83
2019-01-08T11:06:15.574Z,15.18
2019-01-08T11:08:46.132Z,16.35
2019-01-08T11:11:16.598Z,16.17
2019-01-08T11:13:47.118Z,15.35
2019-01-08T11:16:18.363Z,13.20
2019-01-08T11:18:49.270Z,16.77
2019-01-08T11:21:19.800Z,14.58
2019-01-08T11:23:50.216Z,14.78
2019-01-08T11:26:20.755Z,12.95
2019-01-08T11:28:51.298Z,15.93
2019-01-08T11:31:21.690Z,12.65
2019-01-08T11:33:52.267Z,14.38
2019-01-08T11:36:22.784Z,12.28
2019-01-08T11:38:53.293Z,14.25
2019-01-08T11:41:23.645Z,13.53
2019-01-08T11:43:54.183Z,12.95
2019-01-08T11:46:24.786Z,13.78
2019-01-08T11:48:55.344Z,13.58
2019-01-08T11:51:25.785Z,13.20
2019-01-08T11:53:56.492Z,12.70
2019-01-08T11:56:27.353Z,11.78
2019-01-08T11:58:57.975Z,12.50
2019-01-08T12:01:28.377Z,13.00
2019-01-08T12:03:59.819Z,11.80
2019-01-08T12:06:30.663Z,13.65
2019-01-08T12:09:01.285Z,11.55
2019-01-08T12:11:31.809Z,11.50
2019-01-08T12:14:02.461Z,12.15
2019-01-08T12:16:32.959Z,12.43
2019-01-08T12:19:03.482Z,12.13
2019-01-08T12:21:33.977Z,12.43
2019-01-08T12:24:04.687Z,13.43
2019-01-08T12:26:36.094Z,12.03
2019-01-08T12:29:06.503Z,11.53
2019-01-08T12:31:37.086Z,11.63
2019-01-08T12:34:08.783Z,12.30
2019-01-08T12:36:39.201Z,11.28
2019-01-08T12:39:10.059Z,11.22
2019-01-08T12:41:40.791Z,12.33
2019-01-08T12:44:11.206Z,12.70
2019-01-08T12:46:41.792Z,10.45
2019-01-08T12:49:12.580Z,11.20
2019-01-08T12:51:42.997Z,11.53
2019-01-08T12:54:14.576Z,11.97
2019-01-08T12:56:45.121Z,11.15
2019-01-08T12:59:15.664Z,11.90
2019-01-08T13:01:46.417Z,12.35
2019-01-08T13:04:17.161Z,11.90
2019-01-08T13:06:47.524Z,11.35
2019-01-08T13:09:17.986Z,11.68
2019-01-08T13:11:48.322Z,10.70
2019-01-08T13:14:19.162Z,11.50
2019-01-08T13:16:50.425Z,10.63
2019-01-08T13:19:20.807Z,11.50
2019-01-08T13:21:51.532Z,11.20
2019-01-08T13:24:29.213Z,10.30
2019-01-08T13:26:59.636Z,11.48
2019-01-08T13:29:29.700Z,10.60
2019-01-08T13:32:00.482Z,10.63
2019-01-08T13:34:30.860Z,10.93
2019-01-08T13:37:01.275Z,11.43
2019-01-08T13:39:32.036Z,10.93
2019-01-08T13:42:02.457Z,11.78
2019-01-08T13:44:32.889Z,11.93
2019-01-08T13:47:03.786Z,11.50
2019-01-08T13:49:34.307Z,12.15
2019-01-08T13:52:05.304Z,11.83
2019-01-08T13:54:35.765Z,12.25
2019-01-08T13:57:06.167Z,13.48
2019-01-08T13:59:36.902Z,12.35
2019-01-08T14:02:07.443Z,11.35
2019-01-08T14:04:38.036Z,12.47
2019-01-08T14:07:08.501Z,11.80
2019-01-08T14:09:38.949Z,12.70
2019-01-08T14:12:09.400Z,11.38
2019-01-08T14:14:39.830Z,13.83
2019-01-08T14:17:10.605Z,13.25
2019-01-08T14:19:41.352Z,14.70
2019-01-08T14:22:11.655Z,14.15
2019-01-08T14:24:42.932Z,15.35
2019-01-08T14:27:14.262Z,13.28
2019-01-08T14:29:44.679Z,13.83
2019-01-08T14:32:16.588Z,13.70
2019-01-08T14:34:47.993Z,14.80
2019-01-08T14:37:18.376Z,13.65
2019-01-08T14:39:48.836Z,12.68
2019-01-08T14:42:19.500Z,14.28
2019-01-08T14:44:50.441Z,14.00
2019-01-08T14:47:21.160Z,13.20
2019-01-08T14:49:51.889Z,13.55
2019-01-08T14:52:22.346Z,13.93
2019-01-08T14:54:52.894Z,14.80
2019-01-08T14:57:24.624Z,13.93
2019-01-08T14:59:55.004Z,14.40
2019-01-08T15:02:25.950Z,15.25
2019-01-08T15:04:57.953Z,14.90
2019-01-08T15:07:28.415Z,13.98
2019-01-08T15:09:59.398Z,16.42
2019-01-08T15:12:30.193Z,15.93
2019-01-08T15:15:00.711Z,18.95
2019-01-08T15:17:31.866Z,17.75
2019-01-08T15:20:02.495Z,15.72
2019-01-08T15:22:32.883Z,16.23
2019-01-08T15:25:03.663Z,17.00
2019-01-08T15:27:34.083Z,16.23
2019-01-08T15:30:04.711Z,16.02
2019-01-08T15:32:36.181Z,16.70
2019-01-08T15:35:07.337Z,17.70
2019-01-08T15:37:37.879Z,17.75
2019-01-08T15:40:08.477Z,18.15
2019-01-08T15:42:38.978Z,16.95
2019-01-08T15:45:09.595Z,19.07
2019-01-08T15:47:40.316Z,19.10
2019-01-08T15:50:12.407Z,17.52
2019-01-08T15:52:42.916Z,19.52
2019-01-08T15:55:13.472Z,19.85
2019-01-08T15:57:44.069Z,21.68
2019-01-08T16:00:15.608Z,26.07
2019-01-08T16:02:46.702Z,24.32
2019-01-08T16:05:17.183Z,24.87
2019-01-08T16:07:47.967Z,25.43
2019-01-08T16:10:19.096Z,29.82
2019-01-08T16:12:49.686Z,28.65
2019-01-08T16:15:21.328Z,28.98
2019-01-08T16:17:51.765Z,29.70
2019-01-08T16:20:22.335Z,27.40
2019-01-08T16:22:53.005Z,27.13
2019-01-08T16:25:23.726Z,25.77
2019-01-08T16:27:54.361Z,23.15
2019-01-08T16:30:24.933Z,23.18
2019-01-08T16:32:55.527Z,21.42
2019-01-08T16:35:26.238Z,22.58
2019-01-08T16:37:56.806Z,26.45
2019-01-08T16:40:27.446Z,27.80
2019-01-08T16:42:59.372Z,24.95
2019-01-08T16:45:30.056Z,22.93
2019-01-08T16:48:01.123Z,27.95
2019-01-08T16:50:31.948Z,28.50
2019-01-08T16:53:03.031Z,24.70
2019-01-08T16:55:33.596Z,23.20
2019-01-08T16:58:04.270Z,18.55
2019-01-08T17:00:34.704Z,16.15
2019-01-08T17:03:05.449Z,15.05
2019-01-08T17:05:35.853Z,14.25
2019-01-08T17:08:06.635Z,15.03
2019-01-08T17:10:37.761Z,15.25
2019-01-08T17:13:08.589Z,13.45
2019-01-08T17:15:39.640Z,15.72
2019-01-08T17:18:10.353Z,16.50
2019-01-08T17:20:41.601Z,16.55
2019-01-08T17:23:12.361Z,16.65
2019-01-08T17:25:47.943Z,16.32
2019-01-08T17:28:17.545Z,17.52
2019-01-08T17:30:48.222Z,18.42
2019-01-08T17:33:18.681Z,19.45
2019-01-08T17:35:49.314Z,19.75
2019-01-08T17:38:21.033Z,41.92
2019-01-08T17:40:51.577Z,26.33
2019-01-08T17:43:22.019Z,18.62
2019-01-08T17:45:53.296Z,18.82
2019-01-08T17:48:23.719Z,16.60
2019-01-08T17:50:54.410Z,17.27
2019-01-08T17:53:26.190Z,19.55
2019-01-08T17:55:57.332Z,18.10
2019-01-08T17:58:44.748Z,16.12
2019-01-08T18:01:28.524Z,15.75
2019-01-08T18:03:59.201Z,17.02
2019-01-08T18:06:29.775Z,17.07
2019-01-08T18:09:00.418Z,17.87
2019-01-08T18:11:30.833Z,16.80
2019-01-08T18:14:01.261Z,16.85
2019-01-08T18:16:32.711Z,16.77
2019-01-08T18:19:03.571Z,18.30
2019-01-08T18:21:34.163Z,18.67
2019-01-08T18:24:05.191Z,17.17
2019-01-08T18:26:35.896Z,16.45
2019-01-08T18:29:06.664Z,18.65
2019-01-08T18:31:37.222Z,19.15
2019-01-08T18:34:07.818Z,19.10
2019-01-08T18:36:38.694Z,22.42
2019-01-08T18:39:10.822Z,23.70
2019-01-08T18:41:41.764Z,23.52
2019-01-08T18:44:12.238Z,24.72
2019-01-08T18:46:43.848Z,22.35
2019-01-08T18:49:14.523Z,24.00
2019-01-08T18:51:45.514Z,20.50
2019-01-08T18:54:16.318Z,18.80
2019-01-08T18:56:47.106Z,19.57
2019-01-08T18:59:17.662Z,17.52
2019-01-08T19:01:48.320Z,17.87
2019-01-08T19:04:19.219Z,16.32
2019-01-08T19:06:49.879Z,15.72
2019-01-08T19:09:51.780Z,18.30
2019-01-08T19:12:24.974Z,16.80
2019-01-08T19:14:55.607Z,20.30
2019-01-08T19:17:26.605Z,15.15
2019-01-08T19:19:57.137Z,12.85
2019-01-08T19:22:27.713Z,13.30
2019-01-08T19:24:58.200Z,13.15
2019-01-08T19:27:28.719Z,13.10
2019-01-08T19:29:59.317Z,13.00
2019-01-08T19:32:31.318Z,13.65
2019-01-08T19:35:01.738Z,12.47
2019-01-08T19:37:32.586Z,13.32
2019-01-08T19:40:03.479Z,13.55
2019-01-08T19:42:34.215Z,11.95
2019-01-08T19:45:05.199Z,13.88
2019-01-08T19:47:35.917Z,14.40
2019-01-08T19:50:08.699Z,13.20
2019-01-08T19:52:39.242Z,13.13
2019-01-08T19:55:09.687Z,13.80
2019-01-08T19:57:40.462Z,14.55
2019-01-08T20:00:12.552Z,14.63
2019-01-08T20:02:43.205Z,13.95
2019-01-08T20:05:13.675Z,13.65
2019-01-08T20:07:44.288Z,14.70
2019-01-08T20:10:15.215Z,13.18
2019-01-08T20:12:45.911Z,14.60
2019-01-08T20:15:16.409Z,16.12
2019-01-08T20:17:48.224Z,15.60
2019-01-08T20:20:18.857Z,15.38
2019-01-08T20:22:49.555Z,15.35
2019-01-08T20:25:20.688Z,14.43
2019-01-08T20:27:51.441Z,12.73
2019-01-08T20:30:22.009Z,13.03
2019-01-08T20:32:52.646Z,14.73
2019-01-08T20:35:23.478Z,14.33
2019-01-08T20:37:53.889Z,17.42
2019-01-08T20:40:25.459Z,19.00
2019-01-08T20:42:55.966Z,16.97
2019-01-08T20:45:26.633Z,14.45
2019-01-08T20:47:57.116Z,14.33
2019-01-08T20:50:28.964Z,13.60
2019-01-08T20:52:59.578Z,12.60
2019-01-08T20:55:30.195Z,13.08
2019-01-08T20:58:00.887Z,12.58
2019-01-08T21:00:31.487Z,13.38
2019-01-08T21:03:02.116Z,12.90
2019-01-08T21:05:33.714Z,13.58
2019-01-08T21:08:04.548Z,14.43
2019-01-08T21:10:35.079Z,15.05
2019-01-08T21:13:05.736Z,13.70
2019-01-08T21:15:36.242Z,13.72
2019-01-08T21:18:06.752Z,15.03
2019-01-08T21:20:37.519Z,13.22
2019-01-08T21:23:09.881Z,12.40
2019-01-08T21:25:40.302Z,12.45
2019-01-08T21:28:10.810Z,13.58
2019-01-08T21:30:41.292Z,12.23
2019-01-08T21:33:12.015Z,13.50
2019-01-08T21:35:42.698Z,12.60
2019-01-08T21:38:13.395Z,12.93
2019-01-08T21:40:43.911Z,13.15
2019-01-08T21:43:14.991Z,12.68
2019-01-08T21:45:45.354Z,12.78
2019-01-08T21:48:20.030Z,13.38
2019-01-08T21:50:50.437Z,11.38
2019-01-08T21:53:21.197Z,11.65
2019-01-08T21:55:51.830Z,11.22
2019-01-08T21:58:22.323Z,12.70
2019-01-08T22:00:53.080Z,12.45
2019-01-08T22:03:23.879Z,12.47
2019-01-08T22:05:54.821Z,12.93
2019-01-08T22:08:25.513Z,13.03
2019-01-08T22:10:55.972Z,12.05
2019-01-08T22:13:26.375Z,12.00
2019-01-08T22:15:56.964Z,11.45
2019-01-08T22:18:27.653Z,12.68
2019-01-08T22:20:58.167Z,13.72
2019-01-08T22:23:28.862Z,12.55
2019-01-08T22:25:59.391Z,11.00
2019-01-08T22:28:32.336Z,12.18
2019-01-08T22:31:03.344Z,13.03
2019-01-08T22:33:33.961Z,13.45
2019-01-08T22:36:04.553Z,13.32
2019-01-08T22:38:35.235Z,13.50
2019-01-08T22:41:06.430Z,12.20
2019-01-08T22:43:36.910Z,13.75
2019-01-08T22:46:07.532Z,14.43
2019-01-08T22:48:38.126Z,14.40
2019-01-08T22:51:08.706Z,14.35
2019-01-08T22:53:39.451Z,14.40
2019-01-08T22:56:10.025Z,14.38
2019-01-08T22:58:40.733Z,14.95
2019-01-08T23:01:26.327Z,14.15
2019-01-08T23:03:57.053Z,13.45
2019-01-08T23:06:27.648Z,12.95
2019-01-08T23:08:58.336Z,13.62
2019-01-08T23:11:29.014Z,11.95
2019-01-08T23:13:59.835Z,12.20
2019-01-08T23:16:30.336Z,12.73
2019-01-08T23:19:00.911Z,13.28
2019-01-08T23:21:31.506Z,13.40
2019-01-08T23:24:02.054Z,13.28
2019-01-08T23:26:32.745Z,13.40
2019-01-08T23:29:03.430Z,13.40
2019-01-08T23:31:33.924Z,13.48
2019-01-08T23:34:04.790Z,11.28
2019-01-08T23:36:38.054Z,12.33
2019-01-08T23:39:10.587Z,12.35
2019-01-08T23:41:41.295Z,12.47
2019-01-08T23:44:11.659Z,12.07
2019-01-08T23:46:42.319Z,10.98
2019-01-08T23:49:13.825Z,11.63
2019-01-08T23:51:44.887Z,12.50
2019-01-08T23:54:17.192Z,11.65
2019-01-08T23:56:49.561Z,10.40
2019-01-08T23:59:20.094Z,11.05
